Our Location

Trim Flying Club is based at Weston Airport (EIWT).

Address

Dublin Weston Airport,
Backweston,
Leixlip,
County Kildare

Contact information for Weston

Phone: +353 (01) 6217300
Email: ops@westonairport.com
 
You can read more information on Weston from the IAA's aeronautical information package here.
  • Casement Aerodrome METER/TAF

    Casement Aerodrome is just south of Weston and has a regularly updated METAR and TAF which you can find below.

    Available data for EIME from the past 2 hours
    CASEMENT (MIL)
    Metar
    EIME 231500Z VRB02KT 9999 SCT040 BKN250 09/00 Q1034

    15:00 UTC

    Wind: ° 2kt

    Visibility: 9999 m

    Sky: SCT 4000 ft

    Temp: 9 deg C / 48.2 deg F

    Dewpoint: 0 deg C / 32 deg F

    Pressure: 1034 hPa

    TAF
    TAF EIME 231400Z 2315/2324 29005KT 9999 FEW020 SCT035 TEMPO 2315/2319 VRB03KT BECMG 2319/2321 25005KT